Airfield :
LOGIN :

Register | Disclaimer

   EN    FR    IT 

 










Legend :    VFR   Marginal VFR   IFR   Intensive IFR   Very Intensive IFR
Visi :
Ceiling :
>= 8 km
>= 3000ft
5 to 8 km
1000 to 3000 ft
1500m to 5 km
500 to 1000 ft
800 to 1500m
200 to 500 ft
< 800m
< 200 ft
Symbols :   Thunderstorms  Fog  Heavy snow  Heavy precipitations  Wind > 20 kt
SIGMETs :     Misc.  Thunderstorms  Icing  Turbulence  Mountain Waves  Volcanic Ashes







- Airport Elevation : 796 ft
- IATA code : SYT
- Download approach charts


LFLN - Saint-Yan

CURRENT METAR :
  • 210700Z AUTO 00000KT 0200 R33/0225N FG VV/// 05/05 Q1026 BECMG 5000 BR OVC005

EXPIRED METARs :
  • 210630Z AUTO 00000KT 0200 R33/0200N FG VV/// 05/05 Q1026 BECMG 5000 BR OVC005
  • 210600Z AUTO 00000KT 0200 0150 R33/0250N FG VV/// 05/05 Q1026 NOSIG
  • 210530Z AUTO 00000KT 0250 0200 R33/0300N FG VV/// 05/05 Q1026 NOSIG
  • 210500Z AUTO 00000KT 0200 R33/M0200U FG VV/// 05/05 Q1026
  • 210430Z AUTO 00000KT 0150 R33/M0200N FG VV/// 05/05 Q1026

TAF TAF LFLN
Valid from the 21 at 06:00 until the 21 at 15:00 UTC


210500Z 2106/2115 VRB03KT 0200 FG VV///
BECMG 2108/2110 5000 BR OVC005
BECMG 2110/2112 35005KT CAVOK
No reported NOTAMs for that airfield.



MET'MAP, your aeronautical weather chart ! - Copyright ORBIFLY December 2007 - Disclaimer

ORBIFLY MET'MAP TEAM :

Programming & Development : Alexandra Zaïnal
Concept & Development : Baudouin d'Aumeries
Co-Development & Prog : Marc-Olivier Méhu
Technical & hardware support : Manuel Goepfert

Contact : metmap@orbifly.com




SOURCES & CREDITS :

   NOAA